createdAt,value
2022-10-18T00:02:05.744Z,99316.88
2022-10-18T00:04:32.805Z,99317.06
2022-10-18T00:06:59.465Z,99316.31
2022-10-18T00:09:27.597Z,99319.84
2022-10-18T00:11:55.156Z,99315.56
2022-10-18T00:14:22.181Z,99315.44
2022-10-18T00:16:48.657Z,99315.44
2022-10-18T00:19:15.236Z,99321.69
2022-10-18T00:21:42.097Z,99316.50
2022-10-18T00:24:08.644Z,99320.06
2022-10-18T00:26:35.134Z,99314.72
2022-10-18T00:29:05.874Z,99316.59
2022-10-18T00:31:37.645Z,99313.13
2022-10-18T00:34:06.991Z,99311.41
2022-10-18T00:36:34.479Z,99309.47
2022-10-18T00:39:02.240Z,99306.81
2022-10-18T00:41:30.889Z,99311.34
2022-10-18T00:44:07.300Z,99306.84
2022-10-18T00:46:36.233Z,99313.25
2022-10-18T00:49:09.500Z,99315.03
2022-10-18T00:51:46.847Z,99305.97
2022-10-18T00:54:14.942Z,99310.19
2022-10-18T00:56:41.818Z,99305.97
2022-10-18T00:59:08.411Z,99311.41
2022-10-18T01:01:34.947Z,99298.25
2022-10-18T01:04:01.435Z,99301.78
2022-10-18T01:06:29.076Z,99293.81
2022-10-18T01:08:56.780Z,99300.91
2022-10-18T01:11:36.197Z,99299.13
2022-10-18T01:14:33.982Z,99293.81
2022-10-18T01:17:29.331Z,99301.75
2022-10-18T01:19:59.031Z,99307.69
2022-10-18T01:22:49.715Z,99302.44
2022-10-18T01:25:38.045Z,99307.69
2022-10-18T01:28:39.989Z,99309.66
2022-10-18T01:31:15.048Z,99309.75
2022-10-18T01:33:42.849Z,99322.22
2022-10-18T01:36:24.085Z,99323.94
2022-10-18T01:38:53.785Z,99325.69
2022-10-18T01:41:24.247Z,99323.84
2022-10-18T01:43:56.087Z,99327.25
2022-10-18T01:46:24.629Z,99330.09
2022-10-18T01:48:53.574Z,99331.97
2022-10-18T01:51:24.746Z,99323.19
2022-10-18T01:53:51.268Z,99322.16
2022-10-18T01:56:39.439Z,99322.88
2022-10-18T01:59:24.399Z,99321.81
2022-10-18T02:02:12.599Z,99311.94
2022-10-18T02:04:42.009Z,99315.56
2022-10-18T02:07:23.942Z,99319.97
2022-10-18T02:10:35.140Z,99334.97
2022-10-18T02:13:02.507Z,99327.81
2022-10-18T02:15:41.273Z,99324.72
2022-10-18T02:18:23.670Z,99326.72
2022-10-18T02:20:51.821Z,99327.84
2022-10-18T02:23:21.403Z,99323.56
2022-10-18T02:25:47.995Z,99319.53
2022-10-18T02:28:14.685Z,99318.72
2022-10-18T02:30:49.631Z,99312.44
2022-10-18T02:33:39.546Z,99315.09
2022-10-18T02:36:23.235Z,99316.88
2022-10-18T02:38:54.996Z,99315.00
2022-10-18T02:41:28.358Z,99317.66
2022-10-18T02:43:54.872Z,99318.47
2022-10-18T02:46:21.475Z,99320.31
2022-10-18T02:48:48.126Z,99315.13
2022-10-18T02:51:14.977Z,99314.38
2022-10-18T02:53:41.843Z,99310.91
2022-10-18T02:56:08.984Z,99309.16
2022-10-18T02:58:35.480Z,99317.19
2022-10-18T03:01:02.040Z,99309.28
2022-10-18T03:03:28.763Z,99312.75
2022-10-18T03:05:55.255Z,99317.31
2022-10-18T03:08:22.823Z,99313.91
2022-10-18T03:10:49.374Z,99312.19
2022-10-18T03:13:15.991Z,99312.06
2022-10-18T03:15:42.707Z,99314.66
2022-10-18T03:18:10.037Z,99321.63
2022-10-18T03:20:36.691Z,99309.16
2022-10-18T03:23:03.388Z,99311.88
2022-10-18T03:25:29.903Z,99311.88
2022-10-18T03:27:56.356Z,99309.16
2022-10-18T03:30:22.886Z,99314.38
2022-10-18T03:32:49.352Z,99308.09
2022-10-18T03:35:16.223Z,99319.47
2022-10-18T03:37:42.735Z,99320.31
2022-10-18T03:40:09.492Z,99322.03
2022-10-18T03:42:35.990Z,99321.97
2022-10-18T03:45:02.466Z,99324.47
2022-10-18T03:47:28.980Z,99321.81
2022-10-18T03:49:57.212Z,99324.63
2022-10-18T03:52:24.096Z,99312.22
2022-10-18T03:54:50.550Z,99303.53
2022-10-18T03:57:17.089Z,99308.03
2022-10-18T03:59:43.600Z,99301.88
2022-10-18T04:02:10.403Z,99295.53
2022-10-18T04:04:36.867Z,99291.94
2022-10-18T04:07:03.399Z,99280.28
2022-10-18T04:09:29.965Z,99293.53
2022-10-18T04:11:56.437Z,99289.16
2022-10-18T04:14:22.943Z,99284.84
2022-10-18T04:16:49.510Z,99269.78
2022-10-18T04:19:16.164Z,99268.13
2022-10-18T04:21:42.655Z,99268.91
2022-10-18T04:24:09.165Z,99265.13
2022-10-18T04:26:35.691Z,99263.34
2022-10-18T04:29:02.270Z,99265.19
2022-10-18T04:31:28.782Z,99253.75
2022-10-18T04:33:55.352Z,99253.53
2022-10-18T04:36:21.834Z,99248.09
2022-10-18T04:38:48.409Z,99257.13
2022-10-18T04:41:14.870Z,99254.47
2022-10-18T04:43:41.431Z,99248.16
2022-10-18T04:46:07.919Z,99240.28
2022-10-18T04:48:34.402Z,99237.63
2022-10-18T04:51:00.983Z,99239.25
2022-10-18T04:53:27.633Z,99238.34
2022-10-18T04:55:54.163Z,99240.06
2022-10-18T04:58:20.627Z,99236.75
2022-10-18T05:00:47.862Z,99255.59
2022-10-18T05:03:15.023Z,99257.31
2022-10-18T05:06:00.860Z,99281.38
2022-10-18T05:08:28.459Z,99281.31
2022-10-18T05:10:54.959Z,99277.34
2022-10-18T05:13:21.518Z,99266.72
2022-10-18T05:15:47.998Z,99258.06
2022-10-18T05:18:14.590Z,99248.28
2022-10-18T05:20:41.103Z,99251.81
2022-10-18T05:23:10.832Z,99269.56
2022-10-18T05:25:41.603Z,99272.28
2022-10-18T05:28:15.648Z,99262.78
2022-10-18T05:30:53.843Z,99259.47
2022-10-18T05:33:20.362Z,99247.13
2022-10-18T05:35:46.862Z,99244.41
2022-10-18T05:38:13.358Z,99258.53
2022-10-18T05:40:39.822Z,99249.66
2022-10-18T05:43:06.292Z,99252.44
2022-10-18T05:45:32.885Z,99229.50
2022-10-18T05:47:59.390Z,99231.16
2022-10-18T05:50:25.917Z,99223.81
2022-10-18T05:53:02.694Z,99227.34
2022-10-18T05:55:39.377Z,99228.22
2022-10-18T05:58:05.970Z,99211.91
2022-10-18T06:00:32.576Z,99202.31
2022-10-18T06:03:00.390Z,99206.25
2022-10-18T06:05:27.308Z,99200.84
2022-10-18T06:07:53.942Z,99193.16
2022-10-18T06:10:20.536Z,99201.22
2022-10-18T06:12:47.021Z,99230.53
2022-10-18T06:15:14.178Z,99244.81
2022-10-18T06:17:40.706Z,99259.22
2022-10-18T06:20:08.455Z,99274.47
2022-10-18T06:22:35.007Z,99280.91
2022-10-18T06:25:01.570Z,99278.00
2022-10-18T06:27:28.108Z,99282.25
2022-10-18T06:29:54.780Z,99274.66
2022-10-18T06:32:21.285Z,99291.88
2022-10-18T06:34:47.816Z,99275.22
2022-10-18T06:37:14.297Z,99284.06
2022-10-18T06:39:41.167Z,99277.84
2022-10-18T06:42:07.879Z,99280.41
2022-10-18T06:44:34.393Z,99286.56
2022-10-18T06:47:01.128Z,99275.09
2022-10-18T06:49:27.676Z,99256.50
2022-10-18T06:51:54.657Z,99251.00
2022-10-18T06:54:21.537Z,99269.03
2022-10-18T06:56:48.100Z,99283.22
2022-10-18T06:59:14.950Z,99306.88
2022-10-18T07:01:41.614Z,99315.75
2022-10-18T07:04:08.277Z,99305.31
2022-10-18T07:06:34.780Z,99289.00
2022-10-18T07:09:03.156Z,99294.63
2022-10-18T07:11:29.760Z,99300.88
2022-10-18T07:14:03.149Z,99308.88
2022-10-18T07:16:30.428Z,99307.06
2022-10-18T07:18:57.469Z,99308.72
2022-10-18T07:21:25.570Z,99320.28
2022-10-18T07:23:52.918Z,99332.50
2022-10-18T07:26:26.075Z,99338.59
2022-10-18T07:29:01.891Z,99331.47
2022-10-18T07:31:29.418Z,99326.88
2022-10-18T07:33:56.049Z,99315.41
2022-10-18T07:36:22.901Z,99311.75
2022-10-18T07:38:51.989Z,99306.25
2022-10-18T07:41:19.350Z,99311.56
2022-10-18T07:43:53.444Z,99326.50
2022-10-18T07:46:22.499Z,99311.38
2022-10-18T07:48:50.039Z,99304.25
2022-10-18T07:51:17.922Z,99318.25
2022-10-18T07:53:44.481Z,99318.13
2022-10-18T07:56:21.228Z,99314.50
2022-10-18T07:58:52.688Z,99313.63
2022-10-18T08:01:21.253Z,99298.50
2022-10-18T08:03:48.184Z,99302.66
2022-10-18T08:06:16.607Z,99295.56
2022-10-18T08:08:43.197Z,99299.03
2022-10-18T08:11:19.872Z,99305.06
2022-10-18T08:13:46.752Z,99296.09
2022-10-18T08:16:16.164Z,99306.63
2022-10-18T08:18:42.787Z,99310.88
2022-10-18T08:21:11.640Z,99309.97
2022-10-18T08:23:38.791Z,99313.59
2022-10-18T08:26:08.639Z,99317.34
2022-10-18T08:28:38.336Z,99326.06
2022-10-18T08:31:13.173Z,99329.44
2022-10-18T08:33:40.310Z,99329.56
2022-10-18T08:36:08.950Z,99319.88
2022-10-18T08:38:36.912Z,99325.97
2022-10-18T08:41:28.395Z,99323.38
2022-10-18T08:44:27.765Z,99322.41
2022-10-18T08:47:19.642Z,99317.97
2022-10-18T08:50:00.927Z,99322.41
2022-10-18T08:52:45.141Z,99319.19
2022-10-18T08:55:24.525Z,99326.06
2022-10-18T08:57:51.627Z,99321.84
2022-10-18T09:00:23.304Z,99314.75
2022-10-18T09:02:54.783Z,99321.53
2022-10-18T09:05:51.166Z,99322.78
2022-10-18T09:08:29.945Z,99325.41
2022-10-18T09:11:06.778Z,99329.94
2022-10-18T09:14:03.595Z,99334.59
2022-10-18T09:17:14.991Z,99333.84
2022-10-18T09:20:11.964Z,99339.03
2022-10-18T09:23:01.729Z,99337.34
2022-10-18T09:25:45.677Z,99334.66
2022-10-18T09:28:19.763Z,99347.84
2022-10-18T09:31:15.368Z,99355.09
2022-10-18T09:33:48.016Z,99353.38
2022-10-18T09:36:20.916Z,99354.94
2022-10-18T09:38:51.436Z,99360.19
2022-10-18T09:41:26.888Z,99360.09
2022-10-18T09:44:02.665Z,99361.72
2022-10-18T09:46:38.768Z,99348.41
2022-10-18T09:49:16.358Z,99351.06
2022-10-18T09:51:45.029Z,99359.91
2022-10-18T09:54:17.561Z,99359.94
2022-10-18T09:56:51.524Z,99362.66
2022-10-18T09:59:35.939Z,99364.56
2022-10-18T10:02:03.023Z,99346.75
2022-10-18T10:04:29.690Z,99356.25
2022-10-18T10:06:59.480Z,99357.81
2022-10-18T10:09:36.459Z,99364.03
2022-10-18T10:12:03.275Z,99364.72
2022-10-18T10:14:30.770Z,99368.28
2022-10-18T10:17:05.859Z,99366.75
2022-10-18T10:19:39.751Z,99375.72
2022-10-18T10:22:09.574Z,99379.19
2022-10-18T10:24:39.194Z,99380.06
2022-10-18T10:27:15.517Z,99379.00
2022-10-18T10:29:53.665Z,99375.38
2022-10-18T10:32:22.550Z,99381.56
2022-10-18T10:34:50.303Z,99377.34
2022-10-18T10:37:23.013Z,99385.06
2022-10-18T10:40:17.917Z,99391.53
2022-10-18T10:42:59.948Z,99383.69
2022-10-18T10:45:55.159Z,99378.91
2022-10-18T10:48:22.334Z,99372.59
2022-10-18T10:51:22.803Z,99374.38
2022-10-18T10:53:57.729Z,99378.63
2022-10-18T10:56:30.351Z,99380.28
2022-10-18T10:59:06.948Z,99380.28
2022-10-18T11:01:34.179Z,99379.44
2022-10-18T11:04:30.552Z,99381.38
2022-10-18T11:07:05.939Z,99382.19
2022-10-18T11:09:41.650Z,99379.41
2022-10-18T11:12:30.783Z,99380.97
2022-10-18T11:15:12.478Z,99381.88
2022-10-18T11:18:08.274Z,99385.38
2022-10-18T11:20:47.193Z,99394.81
2022-10-18T11:23:16.039Z,99395.84
2022-10-18T11:25:45.665Z,99390.88
2022-10-18T11:28:31.079Z,99392.13
2022-10-18T11:31:15.509Z,99396.25
2022-10-18T11:34:11.222Z,99398.25
2022-10-18T11:37:15.594Z,99395.28
2022-10-18T11:40:16.908Z,99394.41
2022-10-18T11:42:58.455Z,99388.75
2022-10-18T11:48:10.008Z,99387.25
2022-10-18T11:50:51.726Z,99388.16
2022-10-18T11:53:29.499Z,99386.16
2022-10-18T11:56:19.978Z,99382.00
2022-10-18T11:58:49.410Z,99383.41
2022-10-18T12:01:38.762Z,99384.94
2022-10-18T12:04:14.961Z,99391.06
2022-10-18T12:06:45.285Z,99390.94
2022-10-18T12:09:17.979Z,99379.59
2022-10-18T12:11:55.492Z,99384.41
2022-10-18T12:14:30.221Z,99387.19
2022-10-18T12:17:40.186Z,99378.13
2022-10-18T12:20:10.593Z,99380.34
2022-10-18T12:22:47.462Z,99387.88
2022-10-18T12:25:16.280Z,99382.84
2022-10-18T12:27:56.787Z,99391.53
2022-10-18T12:30:31.210Z,99393.38
2022-10-18T12:33:27.320Z,99387.13
2022-10-18T12:36:13.557Z,99381.41
2022-10-18T12:38:43.711Z,99384.06
2022-10-18T12:41:32.207Z,99379.28
2022-10-18T12:44:17.562Z,99390.97
2022-10-18T12:46:52.079Z,99393.06
2022-10-18T12:49:41.407Z,99391.22
2022-10-18T12:52:33.941Z,99385.09
2022-10-18T12:55:19.328Z,99385.81
2022-10-18T12:57:51.816Z,99386.53
2022-10-18T13:00:30.217Z,99390.63
2022-10-18T13:03:18.227Z,99386.84
2022-10-18T13:05:56.223Z,99378.81
2022-10-18T13:08:29.220Z,99378.72
2022-10-18T13:11:01.957Z,99376.81
2022-10-18T13:13:59.106Z,99384.59
2022-10-18T13:16:49.037Z,99377.38
2022-10-18T13:19:33.941Z,99384.16
2022-10-18T13:22:09.287Z,99382.03
2022-10-18T13:24:44.625Z,99389.03
2022-10-18T13:27:42.157Z,99383.38
2022-10-18T13:30:27.222Z,99384.91
2022-10-18T13:33:02.808Z,99397.59
2022-10-18T13:35:38.327Z,99386.97
2022-10-18T13:38:26.530Z,99390.88
2022-10-18T13:41:14.513Z,99385.78
2022-10-18T13:43:53.471Z,99385.78
2022-10-18T13:46:44.306Z,99378.94
2022-10-18T13:49:14.740Z,99382.19
2022-10-18T13:51:59.312Z,99385.38
2022-10-18T13:54:59.737Z,99391.81
2022-10-18T13:57:47.577Z,99389.03
2022-10-18T14:00:35.421Z,99388.91
2022-10-18T14:03:56.224Z,99394.13
2022-10-18T14:06:45.071Z,99395.88
2022-10-18T14:09:55.021Z,99400.84
2022-10-18T14:12:32.584Z,99401.81
2022-10-18T14:15:27.218Z,99401.81
2022-10-18T14:18:01.614Z,99399.44
2022-10-18T14:20:55.492Z,99409.56
2022-10-18T14:23:43.429Z,99405.34
2022-10-18T14:26:19.047Z,99401.72
2022-10-18T14:29:01.445Z,99402.69
2022-10-18T14:31:28.253Z,99400.19
2022-10-18T14:33:58.413Z,99407.16
2022-10-18T14:36:29.475Z,99406.16
2022-10-18T14:39:02.096Z,99401.72
2022-10-18T14:41:31.023Z,99405.31
2022-10-18T14:44:16.614Z,99407.34
2022-10-18T14:46:49.243Z,99405.50
2022-10-18T14:49:17.549Z,99408.81
2022-10-18T14:51:46.714Z,99409.69
2022-10-18T14:54:30.698Z,99412.22
2022-10-18T14:56:59.833Z,99417.53
2022-10-18T14:59:37.708Z,99400.59
2022-10-18T15:02:16.040Z,99405.91
2022-10-18T15:04:46.356Z,99408.69
2022-10-18T15:07:15.786Z,99414.28
2022-10-18T15:09:43.530Z,99413.66
2022-10-18T15:12:13.516Z,99416.47
2022-10-18T15:14:41.335Z,99421.31
2022-10-18T15:17:15.467Z,99416.97
2022-10-18T15:19:55.003Z,99419.69
2022-10-18T15:22:31.619Z,99416.22
2022-10-18T15:25:14.925Z,99419.75
2022-10-18T15:27:45.323Z,99423.25
2022-10-18T15:30:25.678Z,99424.28
2022-10-18T15:32:54.915Z,99412.81
2022-10-18T15:35:33.425Z,99420.72
2022-10-18T15:38:12.776Z,99420.81
2022-10-18T15:40:40.359Z,99423.63
2022-10-18T15:43:26.795Z,99427.88
2022-10-18T15:46:01.640Z,99426.34
2022-10-18T15:48:38.121Z,99419.41
2022-10-18T15:51:48.086Z,99427.41
2022-10-18T15:54:19.306Z,99423.25
2022-10-18T15:56:46.054Z,99416.31
2022-10-18T15:59:50.738Z,99430.59
2022-10-18T16:02:17.395Z,99419.47
2022-10-18T16:04:43.980Z,99426.69
2022-10-18T16:07:11.975Z,99438.50
2022-10-18T16:09:38.618Z,99439.81
2022-10-18T16:12:05.498Z,99441.72
2022-10-18T16:14:32.241Z,99447.19
2022-10-18T16:17:01.046Z,99445.56
2022-10-18T16:19:28.097Z,99448.22
2022-10-18T16:21:55.131Z,99451.97
2022-10-18T16:24:23.044Z,99440.75
2022-10-18T16:26:49.851Z,99443.44
2022-10-18T16:29:21.706Z,99440.94
2022-10-18T16:31:48.412Z,99437.72
2022-10-18T16:34:14.928Z,99445.91
2022-10-18T16:36:41.727Z,99448.78
2022-10-18T16:39:14.896Z,99453.38
2022-10-18T16:41:41.631Z,99453.81
2022-10-18T16:44:08.151Z,99451.34
2022-10-18T16:46:35.665Z,99457.56
2022-10-18T16:49:02.999Z,99461.22
2022-10-18T16:51:29.545Z,99463.13
2022-10-18T16:53:56.131Z,99472.91
2022-10-18T16:56:30.624Z,99472.19
2022-10-18T16:58:58.579Z,99476.81
2022-10-18T17:01:25.881Z,99475.97
2022-10-18T17:03:53.513Z,99472.47
2022-10-18T17:06:21.967Z,99476.94
2022-10-18T17:08:48.921Z,99489.13
2022-10-18T17:11:20.562Z,99477.84
2022-10-18T17:13:47.369Z,99492.09
2022-10-18T17:16:21.426Z,99486.94
2022-10-18T17:18:47.968Z,99500.25
2022-10-18T17:21:14.538Z,99503.91
2022-10-18T17:23:41.043Z,99499.69
2022-10-18T17:26:27.725Z,99492.66
2022-10-18T17:28:59.260Z,99496.19
2022-10-18T17:31:25.888Z,99499.03
2022-10-18T17:33:54.717Z,99493.78
2022-10-18T17:36:22.215Z,99491.22
2022-10-18T17:38:53.513Z,99500.91
2022-10-18T17:41:20.690Z,99500.91
2022-10-18T17:43:48.508Z,99499.06
2022-10-18T17:46:15.966Z,99499.00
2022-10-18T17:48:42.727Z,99490.94
2022-10-18T17:51:11.357Z,99486.44
2022-10-18T17:53:38.068Z,99478.50
2022-10-18T17:56:05.731Z,99489.84
2022-10-18T17:58:32.477Z,99495.97
2022-10-18T18:01:11.409Z,99490.53
2022-10-18T18:03:38.120Z,99484.16
2022-10-18T18:06:36.924Z,99497.44
2022-10-18T18:09:10.447Z,99487.72
2022-10-18T18:11:40.151Z,99484.97
2022-10-18T18:14:10.738Z,99486.78
2022-10-18T18:16:43.114Z,99500.97
2022-10-18T18:19:10.377Z,99497.44
2022-10-18T18:21:41.153Z,99495.56
2022-10-18T18:24:08.302Z,99490.13
2022-10-18T18:26:36.178Z,99491.69
2022-10-18T18:31:34.326Z,99487.50
2022-10-18T18:34:05.212Z,99483.28
2022-10-18T18:36:32.599Z,99488.72
2022-10-18T18:38:59.548Z,99494.19
2022-10-18T18:41:27.670Z,99491.81
2022-10-18T18:44:03.362Z,99494.53
2022-10-18T18:46:33.327Z,99499.91
2022-10-18T18:49:00.548Z,99500.81
2022-10-18T18:51:27.331Z,99501.75
2022-10-18T18:53:54.310Z,99503.47
2022-10-18T18:56:25.304Z,99489.28
2022-10-18T18:58:53.315Z,99500.66
2022-10-18T19:01:22.886Z,99506.81
2022-10-18T19:03:51.941Z,99507.66
2022-10-18T19:06:24.433Z,99501.56
2022-10-18T19:08:54.335Z,99506.94
2022-10-18T19:11:22.776Z,99501.59
2022-10-18T19:13:49.809Z,99507.13
2022-10-18T19:16:28.661Z,99509.75
2022-10-18T19:19:06.233Z,99506.31
2022-10-18T19:21:35.700Z,99506.25
2022-10-18T19:24:03.418Z,99509.66
2022-10-18T19:26:45.686Z,99507.91
2022-10-18T19:29:16.656Z,99513.13
2022-10-18T19:31:43.973Z,99521.88
2022-10-18T19:34:12.654Z,99515.56
2022-10-18T19:36:41.944Z,99528.03
2022-10-18T19:39:12.134Z,99529.09
2022-10-18T19:41:38.839Z,99528.38
2022-10-18T19:44:05.784Z,99537.25
2022-10-18T19:46:32.714Z,99533.03
2022-10-18T19:48:59.365Z,99541.06
2022-10-18T19:51:28.297Z,99541.16
2022-10-18T19:53:56.593Z,99548.25
2022-10-18T19:56:24.771Z,99541.25
2022-10-18T19:58:51.755Z,99545.69
2022-10-18T20:01:19.537Z,99549.25
2022-10-18T20:03:47.265Z,99546.75
2022-10-18T20:06:13.944Z,99543.47
2022-10-18T20:11:13.369Z,99540.09
2022-10-18T20:13:40.698Z,99535.00
2022-10-18T20:16:09.084Z,99535.19
2022-10-18T20:18:36.184Z,99539.72
2022-10-18T20:21:07.607Z,99544.19
2022-10-18T20:23:39.071Z,99530.13
2022-10-18T20:26:08.304Z,99531.81
2022-10-18T20:28:35.251Z,99539.81
2022-10-18T20:31:04.510Z,99546.06
2022-10-18T20:33:32.165Z,99551.53
2022-10-18T20:36:18.939Z,99556.13
2022-10-18T20:38:48.105Z,99539.59
2022-10-18T20:41:26.261Z,99544.91
2022-10-18T20:43:58.458Z,99549.44
2022-10-18T20:46:25.677Z,99553.91
2022-10-18T20:48:54.256Z,99560.22
2022-10-18T20:51:21.720Z,99562.88
2022-10-18T20:53:48.615Z,99547.13
2022-10-18T20:56:20.987Z,99552.22
2022-10-18T20:58:51.987Z,99545.19
2022-10-18T21:01:27.439Z,99554.94
2022-10-18T21:03:56.179Z,99551.47
2022-10-18T21:06:28.366Z,99552.41
2022-10-18T21:08:56.319Z,99554.34
2022-10-18T21:11:23.651Z,99549.13
2022-10-18T21:13:55.558Z,99549.06
2022-10-18T21:16:22.185Z,99551.78
2022-10-18T21:18:48.970Z,99553.59
2022-10-18T21:21:18.766Z,99550.94
2022-10-18T21:23:46.518Z,99555.44
2022-10-18T21:26:22.496Z,99552.03
2022-10-18T21:28:53.958Z,99552.09
2022-10-18T21:31:23.627Z,99554.72
2022-10-18T21:33:59.697Z,99561.72
2022-10-18T21:36:27.991Z,99563.53
2022-10-18T21:38:54.614Z,99561.00
2022-10-18T21:41:22.312Z,99566.31
2022-10-18T21:43:51.416Z,99557.66
2022-10-18T21:46:20.272Z,99565.56
2022-10-18T21:48:49.640Z,99559.47
2022-10-18T21:51:18.499Z,99569.16
2022-10-18T21:53:46.867Z,99563.91
2022-10-18T21:56:19.688Z,99574.50
2022-10-18T21:58:46.518Z,99564.00
2022-10-18T22:01:17.514Z,99572.84
2022-10-18T22:03:45.567Z,99577.31
2022-10-18T22:06:14.847Z,99575.59
2022-10-18T22:08:45.193Z,99563.38
2022-10-18T22:11:12.395Z,99565.97
2022-10-18T22:13:39.353Z,99558.16
2022-10-18T22:16:07.471Z,99554.59
2022-10-18T22:18:35.147Z,99554.56
2022-10-18T22:21:05.153Z,99552.84
2022-10-18T22:23:37.311Z,99552.81
2022-10-18T22:26:11.927Z,99552.88
2022-10-18T22:28:40.392Z,99559.09
2022-10-18T22:31:14.144Z,99552.97
2022-10-18T22:33:40.844Z,99550.25
2022-10-18T22:36:07.613Z,99552.97
2022-10-18T22:38:35.157Z,99551.31
2022-10-18T22:41:10.057Z,99562.75
2022-10-18T22:43:37.541Z,99561.03
2022-10-18T22:46:06.976Z,99550.56
2022-10-18T22:48:34.137Z,99560.19
2022-10-18T22:51:01.190Z,99561.88
2022-10-18T22:53:28.134Z,99558.38
2022-10-18T22:55:55.082Z,99559.22
2022-10-18T22:58:21.876Z,99545.22
2022-10-18T23:00:48.518Z,99549.59
2022-10-18T23:03:16.996Z,99550.47
2022-10-18T23:05:45.322Z,99538.25
2022-10-18T23:08:13.809Z,99537.41
2022-10-18T23:10:42.094Z,99552.38
2022-10-18T23:13:09.294Z,99547.06
2022-10-18T23:15:36.074Z,99545.31
2022-10-18T23:18:02.684Z,99540.13
2022-10-18T23:20:29.335Z,99547.22
2022-10-18T23:22:55.921Z,99554.22
2022-10-18T23:25:22.672Z,99555.13
2022-10-18T23:27:50.053Z,99551.63
2022-10-18T23:30:17.961Z,99548.13
2022-10-18T23:32:44.609Z,99549.94
2022-10-18T23:35:11.290Z,99544.69
2022-10-18T23:37:38.043Z,99551.66
2022-10-18T23:40:05.108Z,99556.94
2022-10-18T23:42:31.706Z,99554.38
2022-10-18T23:44:58.294Z,99557.06
2022-10-18T23:47:24.952Z,99558.78
2022-10-18T23:49:51.546Z,99559.63
2022-10-18T23:52:18.274Z,99564.91
2022-10-18T23:57:12.309Z,99563.25
2022-10-18T23:59:39.053Z,99565.88
